Terminal Aerodrome Forecast
Issued by NWS

Home | Current Version | Previous Version | Text Only | Print | Product List | Glossary On
Versions: 1 2 3 4 5 6 7 8 9 10 11 12 13 14 15 16 17 18 19 20 21 22 23 24 25 26 27
197
FTUS41 KRLX 220520
TAFCKB
TAF
KCKB 220520Z 2206/2306 00000KT 5SM BR SKC
      TEMPO 2207/2208 2SM BR
     FM220800 00000KT 1/4SM FG VV001
     FM221300 00000KT 2SM BR BKN002
     FM221330 03003KT P6SM FEW050=

USA.gov is the U.S. government's official web portal to all federal, state and local government web resources and services.